createdAt,value
2023-05-09T00:00:11.593Z,101615.00
2023-05-09T00:02:40.384Z,101620.16
2023-05-09T00:05:09.949Z,101616.00
2023-05-09T00:07:38.657Z,101609.28
2023-05-09T00:10:07.609Z,101610.59
2023-05-09T00:12:36.844Z,101599.91
2023-05-09T00:15:08.338Z,101603.75
2023-05-09T00:17:38.606Z,101605.06
2023-05-09T00:20:11.644Z,101594.63
2023-05-09T00:22:43.516Z,101590.16
2023-05-09T00:25:12.239Z,101592.69
2023-05-09T00:27:40.773Z,101595.19
2023-05-09T00:30:09.487Z,101586.13
2023-05-09T00:32:38.024Z,101582.69
2023-05-09T00:35:07.391Z,101583.28
2023-05-09T00:37:35.873Z,101582.75
2023-05-09T00:40:06.624Z,101561.69
2023-05-09T00:42:36.027Z,101569.22
2023-05-09T00:45:04.854Z,101568.84
2023-05-09T00:47:34.503Z,101571.00
2023-05-09T00:50:03.611Z,101573.13
2023-05-09T00:52:33.504Z,101572.19
2023-05-09T00:55:02.307Z,101566.41
2023-05-09T00:57:30.736Z,101566.16
2023-05-09T01:00:00.444Z,101555.09
2023-05-09T01:02:29.157Z,101552.09
2023-05-09T01:04:58.558Z,101546.03
2023-05-09T01:07:56.224Z,101535.59
2023-05-09T01:10:39.418Z,101534.66
2023-05-09T01:13:29.211Z,101537.19
2023-05-09T01:16:09.167Z,101534.69
2023-05-09T01:18:49.934Z,101536.91
2023-05-09T01:21:26.944Z,101527.50
2023-05-09T01:24:25.601Z,101516.16
2023-05-09T01:27:23.227Z,101511.19
2023-05-09T01:29:59.594Z,101504.28
2023-05-09T01:32:30.578Z,101498.75
2023-05-09T01:35:04.482Z,101499.88
2023-05-09T01:37:38.438Z,101503.19
2023-05-09T01:40:29.982Z,101493.53
2023-05-09T01:43:02.042Z,101493.22
2023-05-09T01:45:32.755Z,101491.56
2023-05-09T01:48:02.544Z,101493.44
2023-05-09T01:50:32.270Z,101473.53
2023-05-09T01:53:01.782Z,101490.94
2023-05-09T01:55:34.149Z,101487.72
2023-05-09T01:58:05.548Z,101487.13
2023-05-09T02:00:34.991Z,101486.81
2023-05-09T02:03:04.301Z,101475.47
2023-05-09T02:05:33.834Z,101475.47
2023-05-09T02:08:02.304Z,101479.34
2023-05-09T02:10:31.056Z,101472.81
2023-05-09T02:12:59.585Z,101468.34
2023-05-09T02:15:29.654Z,101466.47
2023-05-09T02:17:58.182Z,101462.22
2023-05-09T02:20:26.682Z,101465.50
2023-05-09T02:22:55.300Z,101478.00
2023-05-09T02:25:23.903Z,101476.13
2023-05-09T02:27:55.636Z,101481.09
2023-05-09T02:30:26.850Z,101481.06
2023-05-09T02:32:59.907Z,101476.03
2023-05-09T02:35:29.290Z,101480.44
2023-05-09T02:37:59.409Z,101469.94
2023-05-09T02:40:30.242Z,101474.34
2023-05-09T02:42:58.635Z,101479.84
2023-05-09T02:45:27.113Z,101467.13
2023-05-09T02:47:56.017Z,101466.31
2023-05-09T02:50:24.998Z,101456.72
2023-05-09T02:52:53.389Z,101453.28
2023-05-09T02:55:21.778Z,101447.72
2023-05-09T02:57:56.232Z,101444.09
2023-05-09T03:00:30.569Z,101449.78
2023-05-09T03:03:00.208Z,101435.09
2023-05-09T03:05:28.652Z,101440.69
2023-05-09T03:07:57.090Z,101440.13
2023-05-09T03:10:25.610Z,101436.25
2023-05-09T03:12:54.028Z,101427.47
2023-05-09T03:15:22.648Z,101426.06
2023-05-09T03:17:51.538Z,101428.41
2023-05-09T03:20:20.068Z,101416.78
2023-05-09T03:22:48.584Z,101423.56
2023-05-09T03:25:17.308Z,101415.84
2023-05-09T03:27:46.045Z,101410.63
2023-05-09T03:30:15.048Z,101414.03
2023-05-09T03:32:43.656Z,101424.22
2023-05-09T03:35:12.172Z,101427.38
2023-05-09T03:37:40.678Z,101412.47
2023-05-09T03:40:09.600Z,101412.22
2023-05-09T03:42:37.967Z,101411.00
2023-05-09T03:45:06.897Z,101407.91
2023-05-09T03:47:35.446Z,101404.97
2023-05-09T03:50:04.273Z,101408.94
2023-05-09T03:52:33.162Z,101400.13
2023-05-09T03:55:01.694Z,101400.38
2023-05-09T03:57:30.264Z,101399.06
2023-05-09T03:59:58.840Z,101404.25
2023-05-09T04:02:27.502Z,101398.50
2023-05-09T04:04:56.026Z,101399.25
2023-05-09T04:07:24.628Z,101388.56
2023-05-09T04:09:53.172Z,101388.88
2023-05-09T04:12:22.590Z,101377.06
2023-05-09T04:14:52.168Z,101371.72
2023-05-09T04:17:20.666Z,101364.19
2023-05-09T04:19:49.047Z,101362.44
2023-05-09T04:22:17.508Z,101371.09
2023-05-09T04:24:45.941Z,101365.28
2023-05-09T04:27:14.520Z,101374.72
2023-05-09T04:29:43.355Z,101371.97
2023-05-09T04:32:11.940Z,101373.63
2023-05-09T04:34:40.714Z,101361.00
2023-05-09T04:37:09.454Z,101359.72
2023-05-09T04:39:37.986Z,101355.38
2023-05-09T04:42:06.567Z,101363.22
2023-05-09T04:44:35.884Z,101355.31
2023-05-09T04:47:04.466Z,101353.94
2023-05-09T04:49:32.927Z,101348.53
2023-05-09T04:52:01.490Z,101345.34
2023-05-09T04:54:29.850Z,101342.56
2023-05-09T04:57:09.852Z,101343.19
2023-05-09T04:59:45.733Z,101337.28
2023-05-09T05:02:14.238Z,101346.56
2023-05-09T05:04:42.738Z,101335.19
2023-05-09T05:07:11.336Z,101326.69
2023-05-09T05:09:41.956Z,101322.50
2023-05-09T05:12:10.621Z,101310.88
2023-05-09T05:14:39.265Z,101310.66
2023-05-09T05:17:08.389Z,101312.13
2023-05-09T05:19:36.917Z,101294.81
2023-05-09T05:22:05.420Z,101294.31
2023-05-09T05:24:33.859Z,101293.97
2023-05-09T05:27:03.159Z,101298.22
2023-05-09T05:29:31.679Z,101299.03
2023-05-09T05:32:00.372Z,101292.69
2023-05-09T05:34:29.011Z,101292.59
2023-05-09T05:36:57.482Z,101296.00
2023-05-09T05:39:27.173Z,101295.31
2023-05-09T05:41:55.699Z,101287.63
2023-05-09T05:44:24.200Z,101273.94
2023-05-09T05:46:52.679Z,101287.06
2023-05-09T05:49:21.049Z,101284.41
2023-05-09T05:51:49.497Z,101286.91
2023-05-09T05:54:18.235Z,101280.25
2023-05-09T05:56:46.657Z,101278.03
2023-05-09T05:59:15.098Z,101271.72
2023-05-09T06:01:43.706Z,101266.13
2023-05-09T06:04:12.305Z,101267.13
2023-05-09T06:06:40.791Z,101261.94
2023-05-09T06:09:09.344Z,101259.19
2023-05-09T06:11:38.251Z,101256.78
2023-05-09T06:14:06.635Z,101252.19
2023-05-09T06:16:35.361Z,101247.75
2023-05-09T06:19:03.931Z,101251.34
2023-05-09T06:21:34.139Z,101251.91
2023-05-09T06:24:10.227Z,101254.66
2023-05-09T06:26:44.189Z,101256.88
2023-05-09T06:29:14.195Z,101247.72
2023-05-09T06:31:42.634Z,101251.06
2023-05-09T06:34:11.280Z,101238.59
2023-05-09T06:36:40.767Z,101246.31
2023-05-09T06:39:09.266Z,101247.44
2023-05-09T06:41:37.698Z,101238.78
2023-05-09T06:44:06.720Z,101240.22
2023-05-09T06:46:35.422Z,101239.97
2023-05-09T06:49:04.103Z,101234.75
2023-05-09T06:51:32.639Z,101233.66
2023-05-09T06:54:01.178Z,101225.38
2023-05-09T06:56:29.764Z,101224.09
2023-05-09T06:58:58.213Z,101227.78
2023-05-09T07:01:26.931Z,101219.72
2023-05-09T07:03:56.604Z,101223.06
2023-05-09T07:06:25.035Z,101221.91
2023-05-09T07:08:53.594Z,101213.03
2023-05-09T07:11:22.328Z,101211.72
2023-05-09T07:13:50.822Z,101209.31
2023-05-09T07:16:20.457Z,101209.09
2023-05-09T07:18:48.953Z,101198.28
2023-05-09T07:21:17.400Z,101206.84
2023-05-09T07:23:45.950Z,101202.78
2023-05-09T07:26:14.553Z,101206.63
2023-05-09T07:28:43.354Z,101197.84
2023-05-09T07:31:11.896Z,101207.72
2023-05-09T07:33:40.506Z,101204.13
2023-05-09T07:36:13.025Z,101200.03
2023-05-09T07:38:41.806Z,101201.59
2023-05-09T07:41:10.449Z,101198.84
2023-05-09T07:43:38.953Z,101195.31
2023-05-09T07:46:07.481Z,101195.84
2023-05-09T07:48:36.406Z,101193.34
2023-05-09T07:51:04.977Z,101182.88
2023-05-09T07:53:33.399Z,101188.97
2023-05-09T07:56:01.979Z,101194.16
2023-05-09T07:58:30.651Z,101186.44
2023-05-09T08:00:59.171Z,101174.53
2023-05-09T08:03:27.804Z,101177.34
2023-05-09T08:05:56.668Z,101178.25
2023-05-09T08:08:25.190Z,101163.63
2023-05-09T08:10:53.690Z,101161.13
2023-05-09T08:13:22.584Z,101149.25
2023-05-09T08:15:51.319Z,101154.22
2023-05-09T08:18:19.774Z,101154.78
2023-05-09T08:20:48.198Z,101142.81
2023-05-09T08:23:16.781Z,101138.75
2023-05-09T08:25:45.500Z,101132.91
2023-05-09T08:28:13.906Z,101135.41
2023-05-09T08:30:42.556Z,101128.16
2023-05-09T08:33:11.102Z,101125.63
2023-05-09T08:35:39.555Z,101125.09
2023-05-09T08:38:08.672Z,101129.00
2023-05-09T08:40:38.010Z,101124.41
2023-05-09T08:43:07.527Z,101122.38
2023-05-09T08:45:45.769Z,101121.00
2023-05-09T08:48:16.941Z,101127.63
2023-05-09T08:50:45.628Z,101121.63
2023-05-09T08:53:14.705Z,101119.34
2023-05-09T08:55:43.889Z,101111.31
2023-05-09T08:58:13.667Z,101120.94
2023-05-09T09:00:42.224Z,101115.94
2023-05-09T09:03:11.071Z,101111.06
2023-05-09T09:05:42.602Z,101114.66
2023-05-09T09:08:11.718Z,101109.00
2023-05-09T09:10:47.549Z,101120.03
2023-05-09T09:13:17.858Z,101116.44
2023-05-09T09:15:48.136Z,101110.88
2023-05-09T09:18:22.739Z,101115.03
2023-05-09T09:21:02.178Z,101108.97
2023-05-09T09:23:32.706Z,101101.84
2023-05-09T09:26:03.026Z,101105.69
2023-05-09T09:28:32.556Z,101100.19
2023-05-09T09:31:01.902Z,101101.25
2023-05-09T09:33:30.657Z,101093.81
2023-05-09T09:35:59.812Z,101085.25
2023-05-09T09:38:28.280Z,101086.25
2023-05-09T09:40:58.099Z,101081.63
2023-05-09T09:43:32.874Z,101082.00
2023-05-09T09:46:05.529Z,101078.66
2023-05-09T09:48:35.551Z,101076.97
2023-05-09T09:51:11.504Z,101078.25
2023-05-09T09:53:41.430Z,101070.41
2023-05-09T09:56:10.538Z,101076.16
2023-05-09T09:58:39.048Z,101074.13
2023-05-09T10:01:09.314Z,101064.59
2023-05-09T10:03:48.086Z,101064.59
2023-05-09T10:06:16.999Z,101056.44
2023-05-09T10:08:49.392Z,101060.91
2023-05-09T10:11:17.995Z,101057.44
2023-05-09T10:13:46.569Z,101059.63
2023-05-09T10:16:15.197Z,101060.19
2023-05-09T10:18:44.514Z,101052.22
2023-05-09T10:21:15.472Z,101045.59
2023-05-09T10:23:48.614Z,101044.81
2023-05-09T10:26:28.696Z,101047.00
2023-05-09T10:28:58.504Z,101049.38
2023-05-09T10:31:29.275Z,101042.84
2023-05-09T10:34:01.676Z,101042.22
2023-05-09T10:36:30.375Z,101037.34
2023-05-09T10:39:00.015Z,101041.44
2023-05-09T10:41:28.756Z,101030.91
2023-05-09T10:43:58.590Z,101037.28
2023-05-09T10:46:27.810Z,101026.81
2023-05-09T10:48:56.890Z,101024.03
2023-05-09T10:51:26.059Z,101016.81
2023-05-09T10:53:56.188Z,101020.72
2023-05-09T10:56:26.500Z,101015.78
2023-05-09T10:58:55.156Z,101015.19
2023-05-09T11:01:39.749Z,101019.22
2023-05-09T11:04:14.235Z,101010.19
2023-05-09T11:06:46.495Z,101001.22
2023-05-09T11:09:37.903Z,101000.59
2023-05-09T11:12:13.189Z,101009.44
2023-05-09T11:14:46.974Z,101001.47
2023-05-09T11:17:21.935Z,100993.22
2023-05-09T11:19:50.503Z,100992.69
2023-05-09T11:22:28.054Z,100982.97
2023-05-09T11:25:08.737Z,100982.59
2023-05-09T11:27:45.257Z,100982.66
2023-05-09T11:30:16.171Z,100984.63
2023-05-09T11:32:52.122Z,100980.47
2023-05-09T11:35:22.430Z,100978.34
2023-05-09T11:38:01.138Z,100972.44
2023-05-09T11:40:30.483Z,100973.00
2023-05-09T11:43:00.038Z,100962.34
2023-05-09T11:45:33.115Z,100960.69
2023-05-09T11:48:08.464Z,100966.66
2023-05-09T11:50:37.004Z,100963.88
2023-05-09T11:53:08.118Z,100965.84
2023-05-09T11:55:38.042Z,100956.81
2023-05-09T11:58:07.332Z,100954.09
2023-05-09T12:00:37.397Z,100951.31
2023-05-09T12:03:06.832Z,100948.88
2023-05-09T12:05:39.335Z,100948.63
2023-05-09T12:08:08.177Z,100947.78
2023-05-09T12:10:38.173Z,100940.91
2023-05-09T12:13:06.816Z,100949.72
2023-05-09T12:15:38.885Z,100946.13
2023-05-09T12:18:08.618Z,100939.50
2023-05-09T12:20:45.964Z,100938.69
2023-05-09T12:23:15.100Z,100943.63
2023-05-09T12:25:48.370Z,100932.09
2023-05-09T12:28:17.677Z,100936.69
2023-05-09T12:30:46.343Z,100932.31
2023-05-09T12:33:15.907Z,100932.34
2023-05-09T12:35:49.216Z,100923.25
2023-05-09T12:38:22.562Z,100925.97
2023-05-09T12:41:18.877Z,100913.25
2023-05-09T12:43:58.678Z,100912.47
2023-05-09T12:46:27.272Z,100915.81
2023-05-09T12:48:56.375Z,100912.75
2023-05-09T12:51:24.826Z,100906.13
2023-05-09T12:53:54.024Z,100904.50
2023-05-09T12:56:23.600Z,100907.75
2023-05-09T12:58:54.408Z,100902.38
2023-05-09T13:01:32.167Z,100895.59
2023-05-09T13:04:06.492Z,100895.53
2023-05-09T13:06:36.083Z,100898.56
2023-05-09T13:09:06.328Z,100890.03
2023-05-09T13:11:35.356Z,100903.94
2023-05-09T13:14:04.268Z,100887.97
2023-05-09T13:16:32.774Z,100884.25
2023-05-09T13:19:05.361Z,100892.03
2023-05-09T13:21:34.585Z,100881.09
2023-05-09T13:24:04.221Z,100881.53
2023-05-09T13:26:32.952Z,100874.06
2023-05-09T13:29:01.444Z,100873.19
2023-05-09T13:31:31.121Z,100878.34
2023-05-09T13:33:59.541Z,100866.81
2023-05-09T13:36:27.951Z,100862.72
2023-05-09T13:38:56.354Z,100866.97
2023-05-09T13:41:25.013Z,100863.81
2023-05-09T13:43:53.432Z,100860.94
2023-05-09T13:46:21.930Z,100857.91
2023-05-09T13:48:50.332Z,100855.94
2023-05-09T13:51:18.867Z,100851.22
2023-05-09T13:53:47.349Z,100849.84
2023-05-09T13:56:15.801Z,100851.25
2023-05-09T13:58:44.235Z,100841.22
2023-05-09T14:01:12.860Z,100840.13
2023-05-09T14:03:41.677Z,100830.56
2023-05-09T14:06:12.437Z,100831.84
2023-05-09T14:08:41.977Z,100826.03
2023-05-09T14:11:10.506Z,100826.25
2023-05-09T14:13:38.996Z,100826.34
2023-05-09T14:16:08.592Z,100825.97
2023-05-09T14:18:37.101Z,100826.97
2023-05-09T14:21:06.757Z,100827.09
2023-05-09T14:23:35.424Z,100818.53
2023-05-09T14:26:04.013Z,100818.38
2023-05-09T14:28:32.715Z,100811.81
2023-05-09T14:31:01.546Z,100803.78
2023-05-09T14:33:30.062Z,100808.16
2023-05-09T14:35:58.834Z,100798.03
2023-05-09T14:38:27.354Z,100803.69
2023-05-09T14:40:56.623Z,100798.31
2023-05-09T14:43:25.160Z,100795.50
2023-05-09T14:45:53.931Z,100789.88
2023-05-09T14:48:22.311Z,100784.53
2023-05-09T14:50:56.141Z,100784.06
2023-05-09T14:53:25.042Z,100786.66
2023-05-09T14:55:53.476Z,100783.09
2023-05-09T14:58:23.213Z,100783.91
2023-05-09T15:00:53.000Z,100777.81
2023-05-09T15:03:21.627Z,100766.94
2023-05-09T15:05:51.762Z,100773.09
2023-05-09T15:08:20.480Z,100769.34
2023-05-09T15:10:50.827Z,100763.09
2023-05-09T15:13:19.506Z,100757.16
2023-05-09T15:15:48.369Z,100762.41
2023-05-09T15:18:18.439Z,100750.44
2023-05-09T15:20:47.215Z,100759.25
2023-05-09T15:23:15.619Z,100759.53
2023-05-09T15:25:44.421Z,100753.31
2023-05-09T15:28:13.053Z,100751.63
2023-05-09T15:30:41.679Z,100753.03
2023-05-09T15:33:10.424Z,100744.63
2023-05-09T15:35:39.110Z,100750.03
2023-05-09T15:38:07.965Z,100740.59
2023-05-09T15:40:36.442Z,100741.47
2023-05-09T15:43:08.204Z,100742.22
2023-05-09T15:45:37.964Z,100735.34
2023-05-09T15:48:06.825Z,100730.72
2023-05-09T15:50:35.333Z,100734.84
2023-05-09T15:53:04.840Z,100731.00
2023-05-09T15:55:33.586Z,100738.50
2023-05-09T15:58:02.970Z,100734.44
2023-05-09T16:00:31.578Z,100726.25
2023-05-09T16:03:00.308Z,100723.50
2023-05-09T16:05:28.884Z,100715.84
2023-05-09T16:07:57.420Z,100719.81
2023-05-09T16:10:26.178Z,100727.38
2023-05-09T16:12:54.656Z,100718.66
2023-05-09T16:15:23.277Z,100711.66
2023-05-09T16:17:51.831Z,100714.78
2023-05-09T16:20:20.540Z,100715.53
2023-05-09T16:22:49.006Z,100721.53
2023-05-09T16:25:18.024Z,100717.56
2023-05-09T16:27:46.548Z,100710.41
2023-05-09T16:30:16.315Z,100703.53
2023-05-09T16:32:45.130Z,100704.44
2023-05-09T16:35:13.976Z,100709.53
2023-05-09T16:37:42.857Z,100703.28
2023-05-09T16:40:12.228Z,100696.22
2023-05-09T16:42:42.786Z,100700.69
2023-05-09T16:45:11.588Z,100699.66
2023-05-09T16:47:40.160Z,100699.16
2023-05-09T16:50:10.424Z,100691.22
2023-05-09T16:52:39.985Z,100690.66
2023-05-09T16:55:08.688Z,100688.09
2023-05-09T16:57:37.219Z,100689.41
2023-05-09T17:00:07.773Z,100677.28
2023-05-09T17:02:37.158Z,100684.94
2023-05-09T17:05:06.313Z,100686.25
2023-05-09T17:07:35.066Z,100686.50
2023-05-09T17:10:03.882Z,100685.25
2023-05-09T17:12:32.340Z,100679.94
2023-05-09T17:15:01.114Z,100680.50
2023-05-09T17:17:29.523Z,100684.28
2023-05-09T17:19:58.135Z,100683.00
2023-05-09T17:22:27.219Z,100680.50
2023-05-09T17:24:56.171Z,100679.94
2023-05-09T17:27:24.641Z,100679.41
2023-05-09T17:29:53.161Z,100676.94
2023-05-09T17:32:21.781Z,100675.44
2023-05-09T17:34:50.407Z,100676.03
2023-05-09T17:37:18.803Z,100670.31
2023-05-09T17:39:47.420Z,100666.72
2023-05-09T17:42:15.923Z,100668.72
2023-05-09T17:44:44.614Z,100670.34
2023-05-09T17:47:14.131Z,100670.88
2023-05-09T17:49:42.732Z,100669.78
2023-05-09T17:52:11.221Z,100672.53
2023-05-09T17:54:39.787Z,100663.47
2023-05-09T17:57:08.360Z,100664.59
2023-05-09T17:59:40.397Z,100665.09
2023-05-09T18:02:08.774Z,100666.72
2023-05-09T18:04:37.273Z,100667.84
2023-05-09T18:07:08.572Z,100668.97
2023-05-09T18:09:37.093Z,100664.03
2023-05-09T18:12:06.214Z,100665.03
2023-05-09T18:14:36.151Z,100665.66
2023-05-09T18:17:04.840Z,100656.59
2023-05-09T18:19:33.892Z,100672.72
2023-05-09T18:22:02.813Z,100662.78
2023-05-09T18:24:31.416Z,100663.31
2023-05-09T18:26:59.907Z,100670.28
2023-05-09T18:29:28.538Z,100671.88
2023-05-09T18:31:57.669Z,100669.22
2023-05-09T18:34:28.237Z,100668.69
2023-05-09T18:36:57.416Z,100671.44
2023-05-09T18:39:25.842Z,100668.13
2023-05-09T18:41:54.336Z,100666.19
2023-05-09T18:44:23.008Z,100665.13
2023-05-09T18:46:53.492Z,100671.19
2023-05-09T18:49:22.492Z,100668.97
2023-05-09T18:51:50.976Z,100674.38
2023-05-09T18:54:19.519Z,100669.66
2023-05-09T18:56:47.912Z,100672.72
2023-05-09T18:59:17.291Z,100676.84
2023-05-09T19:01:45.822Z,100678.69
2023-05-09T19:04:17.135Z,100678.13
2023-05-09T19:06:46.484Z,100683.13
2023-05-09T19:09:14.951Z,100675.13
2023-05-09T19:11:43.560Z,100675.34
2023-05-09T19:14:12.038Z,100681.41
2023-05-09T19:16:40.627Z,100675.31
2023-05-09T19:19:09.745Z,100671.66
2023-05-09T19:21:38.112Z,100676.28
2023-05-09T19:24:06.852Z,100683.16
2023-05-09T19:26:35.384Z,100683.16
2023-05-09T19:29:07.851Z,100680.47
2023-05-09T19:31:37.453Z,100691.50
2023-05-09T19:34:06.381Z,100690.88
2023-05-09T19:36:34.898Z,100691.97
2023-05-09T19:39:05.198Z,100686.50
2023-05-09T19:41:34.124Z,100697.31
2023-05-09T19:44:02.821Z,100696.53
2023-05-09T19:46:31.311Z,100701.31
2023-05-09T19:48:59.793Z,100691.97
2023-05-09T19:51:28.263Z,100699.19
2023-05-09T19:53:56.667Z,100689.00
2023-05-09T19:56:25.675Z,100688.72
2023-05-09T19:58:54.781Z,100695.91
2023-05-09T20:01:23.393Z,100693.38
2023-05-09T20:03:52.267Z,100691.72
2023-05-09T20:06:20.973Z,100695.34
2023-05-09T20:08:51.562Z,100699.72
2023-05-09T20:11:20.986Z,100698.13
2023-05-09T20:13:49.487Z,100697.56
2023-05-09T20:16:18.575Z,100694.22
2023-05-09T20:18:48.717Z,100695.63
2023-05-09T20:21:18.551Z,100695.88
2023-05-09T20:23:46.969Z,100699.75
2023-05-09T20:26:15.485Z,100702.50
2023-05-09T20:28:43.873Z,100689.31
2023-05-09T20:31:12.329Z,100697.47
2023-05-09T20:33:41.094Z,100696.13
2023-05-09T20:36:09.685Z,100693.00
2023-05-09T20:38:38.112Z,100696.19
2023-05-09T20:41:06.581Z,100698.69
2023-05-09T20:43:35.189Z,100700.88
2023-05-09T20:46:03.804Z,100695.09
2023-05-09T20:48:32.495Z,100697.16
2023-05-09T20:51:00.998Z,100697.84
2023-05-09T20:53:31.752Z,100697.28
2023-05-09T20:56:03.820Z,100702.81
2023-05-09T20:58:34.009Z,100705.28
2023-05-09T21:01:02.640Z,100708.81
2023-05-09T21:03:31.104Z,100700.78
2023-05-09T21:05:59.610Z,100703.59
2023-05-09T21:08:28.139Z,100706.91
2023-05-09T21:10:56.653Z,100706.91
2023-05-09T21:13:25.444Z,100702.28
2023-05-09T21:15:53.830Z,100706.13
2023-05-09T21:18:22.285Z,100697.88
2023-05-09T21:20:50.797Z,100708.00
2023-05-09T21:23:19.295Z,100706.59
2023-05-09T21:25:47.859Z,100704.66
2023-05-09T21:28:17.270Z,100702.75
2023-05-09T21:30:50.985Z,100704.19
2023-05-09T21:33:20.052Z,100703.91
2023-05-09T21:35:48.765Z,100710.22
2023-05-09T21:38:17.152Z,100705.28
2023-05-09T21:40:45.567Z,100700.31
2023-05-09T21:43:15.500Z,100694.84
2023-05-09T21:45:44.775Z,100693.44
2023-05-09T21:48:13.306Z,100695.06
2023-05-09T21:50:44.594Z,100689.31
2023-05-09T21:53:13.575Z,100698.66
2023-05-09T21:55:42.013Z,100691.50
2023-05-09T21:58:10.499Z,100692.03
2023-05-09T22:00:38.894Z,100686.53
2023-05-09T22:03:07.720Z,100688.75
2023-05-09T22:05:36.258Z,100695.09
2023-05-09T22:08:04.966Z,100684.63
2023-05-09T22:10:33.381Z,100689.56
2023-05-09T22:13:01.750Z,100688.19
2023-05-09T22:15:30.275Z,100689.31
2023-05-09T22:17:58.731Z,100696.03
2023-05-09T22:20:27.296Z,100691.41
2023-05-09T22:22:56.283Z,100689.19
2023-05-09T22:25:24.765Z,100694.50
2023-05-09T22:27:54.804Z,100692.88
2023-05-09T22:30:24.010Z,100681.63
2023-05-09T22:32:52.447Z,100680.06
2023-05-09T22:35:20.864Z,100686.91
2023-05-09T22:37:49.235Z,100687.16
2023-05-09T22:40:17.964Z,100680.22
2023-05-09T22:42:46.782Z,100697.63
2023-05-09T22:45:15.422Z,100691.13
2023-05-09T22:47:44.444Z,100696.47
2023-05-09T22:50:13.043Z,100687.09
2023-05-09T22:52:41.544Z,100686.78
2023-05-09T22:55:10.067Z,100694.09
2023-05-09T22:57:38.615Z,100697.81
2023-05-09T23:00:07.648Z,100696.44
2023-05-09T23:02:36.105Z,100697.09
2023-05-09T23:05:04.860Z,100687.28
2023-05-09T23:07:33.663Z,100694.72
2023-05-09T23:10:02.109Z,100685.91
2023-05-09T23:12:30.967Z,100685.66
2023-05-09T23:14:59.370Z,100693.97
2023-05-09T23:17:27.900Z,100694.81
2023-05-09T23:19:56.474Z,100688.19
2023-05-09T23:22:25.029Z,100692.59
2023-05-09T23:24:53.389Z,100685.19
2023-05-09T23:27:21.819Z,100688.19
2023-05-09T23:29:50.514Z,100684.66
2023-05-09T23:32:19.120Z,100692.34
2023-05-09T23:34:47.505Z,100687.41
2023-05-09T23:37:16.025Z,100687.59
2023-05-09T23:39:44.510Z,100693.38
2023-05-09T23:42:12.926Z,100687.06
2023-05-09T23:44:41.395Z,100692.81
2023-05-09T23:47:09.946Z,100684.31
2023-05-09T23:49:38.410Z,100688.41
2023-05-09T23:52:06.863Z,100687.88
2023-05-09T23:54:35.646Z,100681.84
2023-05-09T23:57:04.201Z,100688.16
2023-05-09T23:59:32.911Z,100689.75
